createdAt,value
2023-04-22T00:00:09.767Z,15.09
2023-04-22T00:02:37.496Z,15.12
2023-04-22T00:05:06.655Z,15.16
2023-04-22T00:07:34.582Z,15.19
2023-04-22T00:10:01.828Z,15.17
2023-04-22T00:12:29.978Z,15.15
2023-04-22T00:14:57.935Z,15.02
2023-04-22T00:17:25.652Z,14.95
2023-04-22T00:19:54.696Z,14.93
2023-04-22T00:22:27.013Z,14.95
2023-04-22T00:24:54.941Z,14.90
2023-04-22T00:27:22.440Z,14.88
2023-04-22T00:29:49.986Z,14.85
2023-04-22T00:32:17.509Z,14.87
2023-04-22T00:34:45.597Z,14.84
2023-04-22T00:37:14.157Z,14.69
2023-04-22T00:39:42.097Z,14.59
2023-04-22T00:42:10.446Z,14.57
2023-04-22T00:44:38.148Z,14.57
2023-04-22T00:47:05.495Z,14.57
2023-04-22T00:49:33.332Z,14.57
2023-04-22T00:52:01.353Z,14.55
2023-04-22T00:54:28.965Z,14.55
2023-04-22T00:57:00.136Z,14.56
2023-04-22T00:59:28.307Z,14.56
2023-04-22T01:01:56.472Z,14.50
2023-04-22T01:04:24.889Z,14.48
2023-04-22T01:06:55.554Z,14.46
2023-04-22T01:09:22.793Z,14.40
2023-04-22T01:11:50.455Z,14.41
2023-04-22T01:14:19.470Z,14.39
2023-04-22T01:16:46.712Z,14.42
2023-04-22T01:19:14.906Z,14.44
2023-04-22T01:21:42.675Z,14.40
2023-04-22T01:24:10.509Z,14.34
2023-04-22T01:26:38.178Z,14.27
2023-04-22T01:29:06.705Z,14.21
2023-04-22T01:31:33.500Z,14.08
2023-04-22T01:34:01.428Z,14.03
2023-04-22T01:36:28.954Z,13.98
2023-04-22T01:38:57.493Z,14.00
2023-04-22T01:41:25.242Z,14.05
2023-04-22T01:43:54.720Z,14.11
2023-04-22T01:46:22.383Z,14.07
2023-04-22T01:48:53.304Z,14.07
2023-04-22T01:51:21.063Z,14.05
2023-04-22T01:53:48.578Z,14.10
2023-04-22T01:56:21.825Z,14.11
2023-04-22T01:58:49.786Z,14.13
2023-04-22T02:01:17.893Z,14.16
2023-04-22T02:03:45.872Z,14.21
2023-04-22T02:06:14.147Z,14.28
2023-04-22T02:08:42.188Z,14.29
2023-04-22T02:11:10.238Z,14.32
2023-04-22T02:13:38.628Z,14.34
2023-04-22T02:16:07.798Z,14.36
2023-04-22T02:18:36.073Z,14.38
2023-04-22T02:21:03.811Z,14.36
2023-04-22T02:23:32.000Z,14.16
2023-04-22T02:25:59.075Z,13.97
2023-04-22T02:28:26.909Z,13.94
2023-04-22T02:30:54.908Z,13.97
2023-04-22T02:33:23.296Z,14.04
2023-04-22T02:35:51.958Z,14.15
2023-04-22T02:38:20.157Z,14.11
2023-04-22T02:40:48.323Z,14.11
2023-04-22T02:43:16.537Z,14.14
2023-04-22T02:45:44.946Z,14.09
2023-04-22T02:48:12.673Z,14.08
2023-04-22T02:50:40.626Z,14.14
2023-04-22T02:53:09.254Z,14.16
2023-04-22T02:55:37.076Z,14.20
2023-04-22T02:58:04.871Z,14.15
2023-04-22T03:00:32.880Z,14.12
2023-04-22T03:03:01.183Z,14.12
2023-04-22T03:05:29.839Z,14.09
2023-04-22T03:07:58.018Z,13.95
2023-04-22T03:10:26.156Z,13.89
2023-04-22T03:12:55.127Z,13.85
2023-04-22T03:15:22.846Z,13.84
2023-04-22T03:17:50.660Z,13.91
2023-04-22T03:20:18.792Z,14.04
2023-04-22T03:22:46.818Z,14.12
2023-04-22T03:25:14.439Z,14.14
2023-04-22T03:27:42.548Z,14.06
2023-04-22T03:30:12.039Z,13.95
2023-04-22T03:32:40.116Z,13.87
2023-04-22T03:35:09.934Z,13.83
2023-04-22T03:37:37.746Z,13.83
2023-04-22T03:40:09.791Z,13.83
2023-04-22T03:42:37.946Z,13.87
2023-04-22T03:45:08.474Z,13.78
2023-04-22T03:47:36.099Z,13.79
2023-04-22T03:50:04.361Z,13.70
2023-04-22T03:52:32.413Z,13.72
2023-04-22T03:55:00.372Z,13.76
2023-04-22T03:57:32.288Z,13.76
2023-04-22T03:59:59.930Z,13.69
2023-04-22T04:02:27.576Z,13.65
2023-04-22T04:04:55.794Z,13.69
2023-04-22T04:07:24.012Z,13.60
2023-04-22T04:09:52.070Z,13.57
2023-04-22T04:12:20.145Z,13.56
2023-04-22T04:14:48.089Z,13.60
2023-04-22T04:17:15.712Z,13.58
2023-04-22T04:19:43.730Z,13.57
2023-04-22T04:22:11.444Z,13.50
2023-04-22T04:24:44.854Z,13.48
2023-04-22T04:27:12.678Z,13.51
2023-04-22T04:29:41.573Z,13.56
2023-04-22T04:32:10.172Z,13.52
2023-04-22T04:34:37.974Z,13.58
2023-04-22T04:37:05.599Z,13.60
2023-04-22T04:39:33.762Z,13.66
2023-04-22T04:42:01.394Z,13.66
2023-04-22T04:44:31.832Z,13.68
2023-04-22T04:46:59.963Z,13.69
2023-04-22T04:49:27.851Z,13.64
2023-04-22T04:51:56.068Z,13.58
2023-04-22T04:54:24.447Z,13.63
2023-04-22T04:56:52.446Z,13.68
2023-04-22T04:59:20.520Z,13.74
2023-04-22T05:01:48.526Z,13.82
2023-04-22T05:04:16.854Z,13.85
2023-04-22T05:06:44.945Z,13.91
2023-04-22T05:09:12.913Z,14.00
2023-04-22T05:11:40.597Z,14.03
2023-04-22T05:14:08.699Z,14.15
2023-04-22T05:16:36.352Z,14.10
2023-04-22T05:19:08.578Z,14.10
2023-04-22T05:21:36.654Z,14.15
2023-04-22T05:24:05.387Z,14.19
2023-04-22T05:26:33.004Z,14.28
2023-04-22T05:29:00.772Z,14.37
2023-04-22T05:31:29.250Z,14.49
2023-04-22T05:33:57.336Z,14.50
2023-04-22T05:36:25.345Z,14.52
2023-04-22T05:38:53.428Z,14.54
2023-04-22T05:41:21.417Z,14.55
2023-04-22T05:43:48.937Z,14.65
2023-04-22T05:46:20.172Z,14.64
2023-04-22T05:48:48.865Z,14.60
2023-04-22T05:51:16.032Z,14.57
2023-04-22T05:53:44.192Z,14.55
2023-04-22T05:56:12.811Z,14.63
2023-04-22T05:58:40.763Z,14.67
2023-04-22T06:01:08.797Z,14.72
2023-04-22T06:03:36.893Z,14.77
2023-04-22T06:06:06.314Z,14.81
2023-04-22T06:08:34.349Z,14.80
2023-04-22T06:11:02.199Z,14.87
2023-04-22T06:13:33.167Z,14.88
2023-04-22T06:15:59.931Z,14.89
2023-04-22T06:18:28.477Z,14.98
2023-04-22T06:20:56.799Z,15.04
2023-04-22T06:23:24.955Z,15.12
2023-04-22T06:25:52.740Z,15.20
2023-04-22T06:28:20.330Z,15.26
2023-04-22T06:30:48.347Z,15.35
2023-04-22T06:33:16.361Z,15.52
2023-04-22T06:35:44.607Z,15.61
2023-04-22T06:38:12.023Z,15.69
2023-04-22T06:40:40.256Z,15.77
2023-04-22T06:43:08.362Z,15.89
2023-04-22T06:45:36.205Z,15.95
2023-04-22T06:48:03.873Z,16.07
2023-04-22T06:50:32.170Z,16.25
2023-04-22T06:53:02.931Z,16.30
2023-04-22T06:55:30.813Z,16.27
2023-04-22T06:57:58.514Z,16.34
2023-04-22T07:00:26.152Z,16.42
2023-04-22T07:02:54.327Z,16.47
2023-04-22T07:05:21.580Z,16.57
2023-04-22T07:07:49.671Z,16.73
2023-04-22T07:10:17.270Z,16.80
2023-04-22T07:12:45.408Z,16.94
2023-04-22T07:15:12.968Z,16.97
2023-04-22T07:17:40.225Z,16.94
2023-04-22T07:20:10.520Z,16.98
2023-04-22T07:22:38.377Z,17.02
2023-04-22T07:25:07.755Z,17.06
2023-04-22T07:27:44.184Z,17.14
2023-04-22T07:30:14.318Z,17.14
2023-04-22T07:32:53.606Z,17.19
2023-04-22T07:35:28.725Z,17.26
2023-04-22T07:37:56.326Z,17.40
2023-04-22T07:40:28.841Z,17.53
2023-04-22T07:43:13.117Z,17.62
2023-04-22T07:45:47.010Z,17.73
2023-04-22T07:48:15.264Z,17.98
2023-04-22T07:50:43.511Z,18.09
2023-04-22T07:53:10.958Z,18.14
2023-04-22T07:55:38.595Z,18.30
2023-04-22T07:58:06.892Z,18.30
2023-04-22T08:00:35.656Z,18.32
2023-04-22T08:03:03.571Z,18.34
2023-04-22T08:05:31.356Z,18.30
2023-04-22T08:07:59.476Z,18.43
2023-04-22T08:10:28.055Z,18.45
2023-04-22T08:12:55.798Z,18.54
2023-04-22T08:15:23.409Z,18.65
2023-04-22T08:17:51.511Z,18.72
2023-04-22T08:20:19.740Z,18.73
2023-04-22T08:22:47.564Z,18.76
2023-04-22T08:25:16.339Z,18.85
2023-04-22T08:27:43.904Z,18.94
2023-04-22T08:30:12.723Z,18.94
2023-04-22T08:32:40.396Z,19.04
2023-04-22T08:35:10.058Z,19.17
2023-04-22T08:37:37.688Z,19.15
2023-04-22T08:40:08.234Z,19.17
2023-04-22T08:42:36.217Z,19.21
2023-04-22T08:45:06.731Z,19.24
2023-04-22T08:47:34.930Z,19.36
2023-04-22T08:50:06.498Z,19.44
2023-04-22T08:52:34.178Z,19.48
2023-04-22T08:55:02.123Z,19.63
2023-04-22T08:57:29.613Z,19.76
2023-04-22T09:00:00.823Z,19.95
2023-04-22T09:02:28.344Z,20.00
2023-04-22T09:04:56.422Z,20.13
2023-04-22T09:07:25.428Z,20.29
2023-04-22T09:09:54.001Z,20.31
2023-04-22T09:12:21.701Z,20.46
2023-04-22T09:14:49.837Z,20.50
2023-04-22T09:17:18.949Z,20.57
2023-04-22T09:19:47.173Z,20.63
2023-04-22T09:22:16.214Z,20.83
2023-04-22T09:25:21.800Z,20.85
2023-04-22T09:27:52.193Z,21.08
2023-04-22T09:30:24.117Z,21.16
2023-04-22T09:33:14.815Z,21.36
2023-04-22T09:35:42.535Z,21.33
2023-04-22T09:38:11.211Z,21.60
2023-04-22T09:40:41.370Z,21.72
2023-04-22T09:43:09.562Z,21.86
2023-04-22T09:45:39.209Z,21.78
2023-04-22T09:48:11.479Z,21.78
2023-04-22T09:50:40.242Z,21.83
2023-04-22T09:53:08.578Z,21.90
2023-04-22T09:55:37.924Z,21.91
2023-04-22T09:58:29.790Z,21.96
2023-04-22T10:01:03.684Z,22.07
2023-04-22T10:03:31.917Z,21.90
2023-04-22T10:06:00.170Z,21.93
2023-04-22T10:08:31.076Z,22.01
2023-04-22T10:10:58.673Z,22.25
2023-04-22T10:13:26.501Z,22.26
2023-04-22T10:15:54.394Z,22.49
2023-04-22T10:18:29.211Z,22.53
2023-04-22T10:20:57.744Z,22.57
2023-04-22T10:23:25.235Z,22.55
2023-04-22T10:25:56.654Z,22.55
2023-04-22T10:28:25.142Z,22.65
2023-04-22T10:30:53.169Z,22.47
2023-04-22T10:33:34.013Z,22.47
2023-04-22T10:36:17.973Z,22.75
2023-04-22T10:38:51.486Z,22.90
2023-04-22T10:41:27.210Z,22.78
2023-04-22T10:44:21.734Z,22.77
2023-04-22T10:46:52.681Z,22.75
2023-04-22T10:49:23.554Z,22.74
2023-04-22T10:51:55.793Z,22.68
2023-04-22T10:54:31.422Z,22.76
2023-04-22T10:57:08.638Z,23.15
2023-04-22T10:59:50.232Z,23.34
2023-04-22T11:02:19.637Z,23.48
2023-04-22T11:04:47.998Z,23.48
2023-04-22T11:07:20.771Z,23.48
2023-04-22T11:10:07.129Z,23.39
2023-04-22T11:12:39.849Z,23.03
2023-04-22T11:15:15.896Z,23.12
2023-04-22T11:17:44.337Z,23.44
2023-04-22T11:20:15.208Z,23.76
2023-04-22T11:22:43.346Z,23.82
2023-04-22T11:25:10.812Z,23.81
2023-04-22T11:27:38.519Z,23.81
2023-04-22T11:30:21.915Z,23.96
2023-04-22T11:32:51.256Z,24.07
2023-04-22T11:35:32.325Z,23.96
2023-04-22T11:38:01.651Z,24.26
2023-04-22T11:40:36.922Z,24.51
2023-04-22T11:43:08.920Z,24.65
2023-04-22T11:45:37.751Z,24.89
2023-04-22T11:48:07.017Z,24.78
2023-04-22T11:50:39.093Z,25.11
2023-04-22T11:53:15.552Z,24.95
2023-04-22T11:55:43.615Z,25.17
2023-04-22T11:58:13.254Z,25.50
2023-04-22T12:00:40.869Z,25.96
2023-04-22T12:03:15.452Z,26.66
2023-04-22T12:06:06.543Z,27.29
2023-04-22T12:09:01.559Z,28.15
2023-04-22T12:11:29.218Z,28.05
2023-04-22T12:13:57.216Z,28.55
2023-04-22T12:16:25.127Z,29.09
2023-04-22T12:18:53.400Z,29.08
2023-04-22T12:21:22.230Z,29.26
2023-04-22T12:23:53.118Z,29.02
2023-04-22T12:26:25.356Z,28.44
2023-04-22T12:28:53.509Z,27.51
2023-04-22T12:31:21.608Z,27.48
2023-04-22T12:33:49.664Z,27.60
2023-04-22T12:36:17.734Z,27.42
2023-04-22T12:38:45.247Z,27.75
2023-04-22T12:41:13.514Z,27.98
2023-04-22T12:43:41.323Z,28.18
2023-04-22T12:46:09.246Z,28.01
2023-04-22T12:48:56.942Z,28.05
2023-04-22T12:51:25.059Z,28.29
2023-04-22T12:53:53.637Z,28.32
2023-04-22T12:56:21.243Z,28.05
2023-04-22T12:58:48.952Z,27.66
2023-04-22T13:01:16.529Z,27.62
2023-04-22T13:03:44.628Z,27.23
2023-04-22T13:06:12.367Z,26.78
2023-04-22T13:08:39.962Z,26.81
2023-04-22T13:11:08.027Z,26.80
2023-04-22T13:13:35.774Z,27.09
2023-04-22T13:16:03.848Z,26.89
2023-04-22T13:18:31.880Z,27.31
2023-04-22T13:21:02.828Z,27.59
2023-04-22T13:23:31.090Z,27.98
2023-04-22T13:25:59.042Z,28.01
2023-04-22T13:28:27.250Z,28.07
2023-04-22T13:30:55.940Z,28.40
2023-04-22T13:33:23.552Z,29.16
2023-04-22T13:35:51.702Z,29.81
2023-04-22T13:38:19.509Z,30.29
2023-04-22T13:40:47.734Z,30.67
2023-04-22T13:43:15.786Z,30.32
2023-04-22T13:45:43.930Z,30.02
2023-04-22T13:48:12.337Z,30.47
2023-04-22T13:50:42.780Z,31.09
2023-04-22T13:53:11.941Z,31.69
2023-04-22T13:55:39.663Z,31.98
2023-04-22T13:58:07.777Z,32.24
2023-04-22T14:00:36.065Z,32.61
2023-04-22T14:03:04.109Z,32.74
2023-04-22T14:05:32.272Z,32.87
2023-04-22T14:08:00.280Z,32.67
2023-04-22T14:10:28.701Z,32.84
2023-04-22T14:12:56.999Z,33.13
2023-04-22T14:15:29.134Z,32.97
2023-04-22T14:17:57.249Z,32.72
2023-04-22T14:20:27.874Z,32.88
2023-04-22T14:22:56.083Z,32.90
2023-04-22T14:25:23.866Z,32.87
2023-04-22T14:27:51.501Z,32.99
2023-04-22T14:30:20.519Z,32.95
2023-04-22T14:32:51.809Z,32.95
2023-04-22T14:35:19.797Z,32.96
2023-04-22T14:37:47.910Z,32.99
2023-04-22T14:40:15.663Z,32.24
2023-04-22T14:42:43.290Z,32.39
2023-04-22T14:45:14.711Z,32.48
2023-04-22T14:47:42.746Z,32.34
2023-04-22T14:50:12.613Z,32.81
2023-04-22T14:52:40.377Z,32.75
2023-04-22T14:55:19.295Z,32.75
2023-04-22T14:57:51.190Z,32.75
2023-04-22T15:00:19.546Z,32.23
2023-04-22T15:02:47.226Z,31.81
2023-04-22T15:05:15.066Z,31.47
2023-04-22T15:07:45.487Z,31.51
2023-04-22T15:10:14.462Z,31.44
2023-04-22T15:12:42.554Z,31.15
2023-04-22T15:15:16.230Z,31.22
2023-04-22T15:17:43.977Z,31.30
2023-04-22T15:20:13.295Z,31.41
2023-04-22T15:22:44.043Z,31.58
2023-04-22T15:25:12.252Z,31.56
2023-04-22T15:27:39.919Z,31.56
2023-04-22T15:30:11.165Z,31.48
2023-04-22T15:32:42.486Z,31.46
2023-04-22T15:35:09.966Z,31.50
2023-04-22T15:37:37.521Z,31.34
2023-04-22T15:40:07.865Z,30.70
2023-04-22T15:42:36.162Z,29.93
2023-04-22T15:45:03.965Z,29.40
2023-04-22T15:47:32.040Z,28.80
2023-04-22T15:50:06.459Z,28.08
2023-04-22T15:52:35.089Z,27.73
2023-04-22T15:55:02.657Z,27.48
2023-04-22T15:57:34.494Z,27.33
2023-04-22T16:00:12.982Z,27.32
2023-04-22T16:02:41.100Z,27.20
2023-04-22T16:05:09.736Z,27.06
2023-04-22T16:07:37.660Z,26.97
2023-04-22T16:10:06.851Z,26.97
2023-04-22T16:12:34.972Z,27.10
2023-04-22T16:15:03.099Z,27.30
2023-04-22T16:17:31.346Z,27.79
2023-04-22T16:19:59.644Z,28.23
2023-04-22T16:22:27.814Z,28.50
2023-04-22T16:24:55.886Z,28.81
2023-04-22T16:27:23.870Z,29.06
2023-04-22T16:29:51.803Z,29.13
2023-04-22T16:32:19.801Z,29.25
2023-04-22T16:34:47.938Z,29.30
2023-04-22T16:37:16.272Z,29.18
2023-04-22T16:39:43.887Z,28.90
2023-04-22T16:42:11.736Z,28.36
2023-04-22T16:44:39.709Z,27.79
2023-04-22T16:47:07.756Z,27.26
2023-04-22T16:49:35.452Z,26.85
2023-04-22T16:52:03.966Z,26.48
2023-04-22T16:54:31.984Z,26.10
2023-04-22T16:57:00.047Z,25.85
2023-04-22T16:59:28.126Z,25.64
2023-04-22T17:01:57.405Z,25.53
2023-04-22T17:04:25.567Z,25.42
2023-04-22T17:06:53.725Z,25.26
2023-04-22T17:09:21.779Z,25.12
2023-04-22T17:11:49.895Z,25.08
2023-04-22T17:14:17.917Z,24.98
2023-04-22T17:16:45.932Z,24.91
2023-04-22T17:19:14.021Z,24.80
2023-04-22T17:21:42.036Z,24.76
2023-04-22T17:24:10.074Z,24.67
2023-04-22T17:26:38.001Z,24.62
2023-04-22T17:29:08.922Z,24.59
2023-04-22T17:31:36.535Z,24.42
2023-04-22T17:34:04.310Z,24.26
2023-04-22T17:36:32.057Z,24.09
2023-04-22T17:38:59.795Z,23.91
2023-04-22T17:41:28.080Z,23.82
2023-04-22T17:43:57.895Z,23.69
2023-04-22T17:46:27.813Z,23.52
2023-04-22T17:48:56.085Z,23.42
2023-04-22T17:51:23.636Z,23.33
2023-04-22T17:53:52.783Z,23.17
2023-04-22T17:56:20.414Z,23.06
2023-04-22T17:58:48.515Z,22.88
2023-04-22T18:01:15.798Z,22.80
2023-04-22T18:03:43.992Z,22.68
2023-04-22T18:06:12.392Z,22.50
2023-04-22T18:08:40.618Z,22.23
2023-04-22T18:11:08.441Z,22.08
2023-04-22T18:13:35.705Z,22.00
2023-04-22T18:16:03.691Z,21.92
2023-04-22T18:18:31.798Z,21.81
2023-04-22T18:21:00.904Z,21.78
2023-04-22T18:23:32.907Z,21.67
2023-04-22T18:26:00.912Z,21.65
2023-04-22T18:28:29.033Z,21.61
2023-04-22T18:30:56.679Z,21.52
2023-04-22T18:33:24.311Z,21.44
2023-04-22T18:35:52.299Z,21.40
2023-04-22T18:38:20.164Z,21.36
2023-04-22T18:40:48.131Z,21.30
2023-04-22T18:43:15.893Z,21.25
2023-04-22T18:45:43.969Z,21.13
2023-04-22T18:48:12.199Z,21.06
2023-04-22T18:50:40.304Z,21.05
2023-04-22T18:53:08.378Z,20.95
2023-04-22T18:55:36.532Z,20.94
2023-04-22T18:58:04.222Z,20.97
2023-04-22T19:00:35.376Z,20.97
2023-04-22T19:03:03.700Z,20.96
2023-04-22T19:05:31.415Z,20.95
2023-04-22T19:07:59.501Z,20.91
2023-04-22T19:10:27.066Z,20.85
2023-04-22T19:12:55.206Z,20.84
2023-04-22T19:15:22.939Z,20.83
2023-04-22T19:17:59.597Z,20.84
2023-04-22T19:20:27.750Z,20.78
2023-04-22T19:22:55.643Z,20.77
2023-04-22T19:25:24.662Z,20.71
2023-04-22T19:27:52.226Z,20.63
2023-04-22T19:30:20.076Z,20.52
2023-04-22T19:32:48.247Z,20.51
2023-04-22T19:35:21.935Z,20.49
2023-04-22T19:37:49.594Z,20.55
2023-04-22T19:40:18.595Z,20.57
2023-04-22T19:42:46.834Z,20.62
2023-04-22T19:45:14.311Z,20.64
2023-04-22T19:47:43.464Z,20.69
2023-04-22T19:50:12.912Z,20.75
2023-04-22T19:52:41.125Z,20.75
2023-04-22T19:55:10.004Z,20.80
2023-04-22T19:57:38.714Z,20.83
2023-04-22T20:00:11.095Z,20.80
2023-04-22T20:02:39.420Z,20.76
2023-04-22T20:05:08.582Z,20.74
2023-04-22T20:07:36.406Z,20.74
2023-04-22T20:10:07.229Z,20.71
2023-04-22T20:12:36.336Z,20.70
2023-04-22T20:15:06.034Z,20.69
2023-04-22T20:17:38.555Z,20.67
2023-04-22T20:20:14.638Z,20.62
2023-04-22T20:22:42.734Z,20.50
2023-04-22T20:25:33.765Z,20.37
2023-04-22T20:28:02.376Z,20.34
2023-04-22T20:30:30.698Z,20.26
2023-04-22T20:32:58.722Z,20.17
2023-04-22T20:35:28.689Z,20.09
2023-04-22T20:37:58.887Z,20.01
2023-04-22T20:40:27.054Z,19.94
2023-04-22T20:42:54.876Z,19.90
2023-04-22T20:45:22.452Z,19.89
2023-04-22T20:47:50.078Z,19.87
2023-04-22T20:50:19.223Z,19.83
2023-04-22T20:52:47.507Z,19.83
2023-04-22T20:55:16.000Z,19.78
2023-04-22T20:57:43.741Z,19.74
2023-04-22T21:00:13.433Z,19.67
2023-04-22T21:02:41.100Z,19.60
2023-04-22T21:05:12.250Z,19.52
2023-04-22T21:07:48.728Z,19.26
2023-04-22T21:10:19.224Z,18.94
2023-04-22T21:12:47.864Z,18.75
2023-04-22T21:15:17.510Z,18.70
2023-04-22T21:17:51.668Z,18.64
2023-04-22T21:20:20.342Z,18.57
2023-04-22T21:22:48.495Z,18.62
2023-04-22T21:25:18.886Z,18.54
2023-04-22T21:27:55.417Z,18.52
2023-04-22T21:30:30.430Z,18.48
2023-04-22T21:32:58.469Z,18.41
2023-04-22T21:35:25.668Z,18.39
2023-04-22T21:37:54.349Z,18.45
2023-04-22T21:40:38.654Z,18.33
2023-04-22T21:43:06.296Z,18.27
2023-04-22T21:45:42.041Z,18.26
2023-04-22T21:48:17.042Z,18.28
2023-04-22T21:50:44.595Z,18.33
2023-04-22T21:53:11.253Z,18.30
2023-04-22T21:55:39.463Z,18.39
2023-04-22T21:58:07.116Z,18.44
2023-04-22T22:00:34.519Z,18.47
2023-04-22T22:03:02.833Z,18.44
2023-04-22T22:05:31.384Z,18.42
2023-04-22T22:07:59.580Z,18.36
2023-04-22T22:10:27.789Z,18.28
2023-04-22T22:12:55.940Z,18.14
2023-04-22T22:15:24.385Z,18.11
2023-04-22T22:17:52.129Z,18.08
2023-04-22T22:20:22.853Z,18.11
2023-04-22T22:22:50.897Z,18.12
2023-04-22T22:25:18.493Z,18.10
2023-04-22T22:27:47.049Z,18.08
2023-04-22T22:30:18.746Z,18.11
2023-04-22T22:32:46.913Z,18.08
2023-04-22T22:35:14.335Z,18.09
2023-04-22T22:37:42.386Z,18.01
2023-04-22T22:40:11.332Z,18.06
2023-04-22T22:42:39.838Z,18.06
2023-04-22T22:45:10.707Z,18.09
2023-04-22T22:47:38.349Z,18.06
2023-04-22T22:50:07.744Z,18.02
2023-04-22T22:52:36.869Z,17.96
2023-04-22T22:55:06.018Z,17.93
2023-04-22T22:57:33.793Z,17.91
2023-04-22T23:00:01.848Z,17.91
2023-04-22T23:02:29.855Z,17.85
2023-04-22T23:04:58.174Z,17.82
2023-04-22T23:07:30.746Z,17.74
2023-04-22T23:09:58.931Z,17.63
2023-04-22T23:12:26.879Z,17.57
2023-04-22T23:14:54.909Z,17.53
2023-04-22T23:17:22.681Z,17.46
2023-04-22T23:19:52.075Z,17.43
2023-04-22T23:22:19.885Z,17.44
2023-04-22T23:24:49.480Z,17.47
2023-04-22T23:27:18.092Z,17.43
2023-04-22T23:29:47.131Z,17.43
2023-04-22T23:32:16.415Z,17.42
2023-04-22T23:34:46.118Z,17.44
2023-04-22T23:37:14.824Z,17.42
2023-04-22T23:39:42.660Z,17.41
2023-04-22T23:42:10.951Z,17.40
2023-04-22T23:44:39.105Z,17.38
2023-04-22T23:47:07.688Z,17.38
2023-04-22T23:49:35.366Z,17.35
2023-04-22T23:52:04.020Z,17.30
2023-04-22T23:54:32.968Z,17.29
2023-04-22T23:57:02.811Z,17.20
2023-04-22T23:59:31.889Z,17.19
